createdAt,value
2019-05-14T01:47:52.694Z,99.90
2019-05-14T02:02:58.952Z,99.90
2019-05-14T03:39:00.351Z,99.90
2019-05-14T03:42:25.633Z,98.80
2019-05-14T03:46:09.710Z,97.70
2019-05-14T03:49:01.367Z,96.60
2019-05-14T03:52:29.244Z,97.10
2019-05-14T03:56:10.960Z,96.80
2019-05-14T03:59:28.837Z,96.30
2019-05-14T04:02:39.141Z,95.20
2019-05-14T04:06:21.111Z,95.10
2019-05-14T04:09:49.358Z,94.90
2019-05-14T04:13:14.706Z,94.80
2019-05-14T04:17:08.910Z,95.00
2019-05-14T04:20:49.914Z,95.00
2019-05-14T04:24:12.628Z,94.30
2019-05-14T04:27:40.076Z,93.40
2019-05-14T04:31:22.981Z,94.20
2019-05-14T04:34:49.854Z,93.90
2019-05-14T04:38:02.634Z,93.00
2019-05-14T04:41:11.641Z,93.50
2019-05-14T04:44:54.614Z,93.60
2019-05-14T04:48:42.365Z,93.40
2019-05-14T04:52:29.169Z,91.20
2019-05-14T05:00:19.496Z,91.10
2019-05-14T05:03:43.960Z,90.00
2019-05-14T05:07:10.120Z,90.00
2019-05-14T05:10:35.497Z,90.20
2019-05-14T05:13:44.219Z,88.80
2019-05-14T05:17:42.602Z,88.90
2019-05-14T05:20:20.251Z,90.70
2019-05-14T05:23:45.819Z,90.40
2019-05-14T05:27:28.886Z,90.90
2019-05-14T05:31:11.544Z,91.10
2019-05-14T05:34:39.133Z,91.50
2019-05-14T05:38:05.019Z,93.00
2019-05-14T05:41:30.869Z,93.90
2019-05-14T05:44:58.641Z,92.70
2019-05-14T05:48:42.220Z,92.20
2019-05-14T05:52:28.302Z,90.40
2019-05-14T05:56:11.723Z,90.20
2019-05-14T05:59:59.151Z,89.00
2019-05-14T06:03:10.696Z,89.50
2019-05-14T06:06:54.077Z,90.40
2019-05-14T06:10:39.715Z,89.90
2019-05-14T06:14:04.979Z,86.80
2019-05-14T06:17:49.271Z,87.40
2019-05-14T06:21:34.367Z,90.00
2019-05-14T06:25:02.698Z,91.10
2019-05-14T06:27:53.612Z,90.10
2019-05-14T06:31:02.744Z,86.40
2019-05-14T06:33:55.637Z,85.10
2019-05-14T06:37:21.553Z,85.70
2019-05-14T06:40:48.980Z,84.60
2019-05-14T06:43:59.147Z,83.50
2019-05-14T06:47:09.286Z,84.20
2019-05-14T06:50:39.154Z,84.70
2019-05-14T06:54:24.785Z,87.40
2019-05-14T06:58:09.185Z,85.50
2019-05-14T07:01:43.223Z,83.60
2019-05-14T07:04:59.102Z,84.60
2019-05-14T07:08:52.328Z,85.30
2019-05-14T07:12:09.003Z,83.30
2019-05-14T07:15:55.138Z,82.40
2019-05-14T07:19:38.554Z,82.10
2019-05-14T07:22:30.687Z,81.10
2019-05-14T07:25:58.502Z,79.50
2019-05-14T07:29:40.713Z,81.20
2019-05-14T07:33:25.383Z,79.70
2019-05-14T07:37:09.382Z,79.30
2019-05-14T07:40:52.353Z,80.90
2019-05-14T07:44:44.976Z,80.50
2019-05-14T07:48:29.655Z,83.90
2019-05-14T07:52:11.799Z,82.50
2019-05-14T07:55:41.217Z,81.70
2019-05-14T07:58:50.262Z,80.00
2019-05-14T08:02:16.408Z,80.80
2019-05-14T08:05:58.834Z,81.40
2019-05-14T08:09:24.096Z,82.30
2019-05-14T08:12:01.702Z,82.00
2019-05-14T08:14:46.010Z,79.00
2019-05-14T08:17:11.843Z,80.60
2019-05-14T08:19:49.803Z,80.10
2019-05-14T08:22:24.077Z,77.80
2019-05-14T08:25:02.511Z,78.00
2019-05-14T08:27:38.885Z,78.20
2019-05-14T08:30:23.213Z,77.80
2019-05-14T08:32:58.315Z,77.30
2019-05-14T08:35:34.152Z,80.90
2019-05-14T08:38:14.315Z,82.20
2019-05-14T08:43:45.711Z,83.60
2019-05-14T08:46:20.210Z,85.40
2019-05-14T08:48:54.744Z,85.60
2019-05-14T08:51:29.757Z,86.30
2019-05-14T08:54:04.290Z,85.70
2019-05-14T08:56:39.112Z,85.10
2019-05-14T08:59:14.785Z,81.30
2019-05-14T09:02:01.809Z,78.50
2019-05-14T09:04:30.218Z,80.80
2019-05-14T09:07:06.167Z,81.10
2019-05-14T09:09:41.012Z,81.20
2019-05-14T09:12:15.473Z,81.50
2019-05-14T09:14:49.812Z,80.00
2019-05-14T09:17:24.183Z,81.20
2019-05-14T09:20:06.199Z,81.80
2019-05-14T09:22:34.628Z,81.90
2019-05-14T09:25:09.641Z,82.80
2019-05-14T09:27:43.852Z,84.40
2019-05-14T09:30:18.647Z,84.30
2019-05-14T09:32:52.937Z,85.30
2019-05-14T09:35:29.212Z,85.90
2019-05-14T09:38:03.424Z,87.50
2019-05-14T09:40:39.721Z,88.20
2019-05-14T09:43:14.002Z,88.00
2019-05-14T09:45:49.457Z,90.20
2019-05-14T09:48:24.295Z,90.50
2019-05-14T09:50:58.921Z,91.90
2019-05-14T09:53:33.488Z,93.80
2019-05-14T09:56:09.189Z,94.70
2019-05-14T09:58:43.829Z,95.70
2019-05-14T10:01:19.433Z,96.70
2019-05-14T10:03:53.998Z,97.40
2019-05-14T10:06:28.666Z,98.90
2019-05-14T10:09:03.205Z,98.80
2019-05-14T10:11:38.324Z,99.60
2019-05-14T10:14:12.726Z,97.30
2019-05-14T10:16:49.058Z,96.50
2019-05-14T10:19:23.472Z,94.50
2019-05-14T10:21:58.773Z,93.70
2019-05-14T10:24:33.473Z,93.40
2019-05-14T10:27:09.861Z,92.70
2019-05-14T10:29:43.518Z,91.80
2019-05-14T10:32:18.671Z,92.40
2019-05-14T10:34:53.424Z,92.60
2019-05-14T10:37:28.807Z,93.10
2019-05-14T10:40:03.235Z,93.90
2019-05-14T10:42:40.223Z,94.30
2019-05-14T10:45:14.038Z,94.30
2019-05-14T10:47:49.399Z,94.60
2019-05-14T10:50:24.090Z,95.30
2019-05-14T10:52:59.438Z,94.70
2019-05-14T10:55:34.013Z,98.40
2019-05-14T10:58:10.367Z,95.60
2019-05-14T11:00:45.235Z,96.40
2019-05-14T11:03:20.497Z,96.70
2019-05-14T11:05:54.931Z,99.90
2019-05-14T11:08:29.858Z,99.90
2019-05-14T11:11:04.417Z,99.90
2019-05-14T11:13:39.486Z,98.70
2019-05-14T11:16:13.808Z,97.70
2019-05-14T11:18:51.194Z,96.80
2019-05-14T11:21:30.174Z,97.50
2019-05-14T11:24:09.216Z,99.20
2019-05-14T11:26:42.359Z,99.40
2019-05-14T11:29:18.798Z,98.80
2019-05-14T11:31:53.331Z,99.90
2019-05-14T11:34:35.723Z,99.90
2019-05-14T11:37:10.490Z,99.90
2019-05-14T11:39:45.312Z,99.90
2019-05-14T11:42:20.001Z,99.90
2019-05-14T11:44:54.791Z,99.90
2019-05-14T11:47:29.787Z,99.90
2019-05-14T11:50:04.489Z,99.90
2019-05-14T11:52:39.636Z,99.90
2019-05-14T11:55:18.511Z,99.90
2019-05-14T11:57:51.141Z,99.90
2019-05-14T12:00:29.305Z,99.90
2019-05-14T12:03:02.193Z,99.90
2019-05-14T12:05:38.837Z,99.90
2019-05-14T12:08:12.976Z,99.90
2019-05-14T12:10:52.908Z,99.90
2019-05-14T12:16:18.344Z,99.90
2019-05-14T12:19:18.756Z,99.90
2019-05-14T12:22:06.331Z,99.90
2019-05-14T12:24:41.312Z,99.90
2019-05-14T12:27:15.619Z,99.90
2019-05-14T12:29:50.728Z,99.90
2019-05-14T12:32:31.483Z,99.90
2019-05-14T12:35:08.572Z,99.90
2019-05-14T12:37:43.065Z,99.90
2019-05-14T12:40:19.364Z,99.90
2019-05-14T12:42:58.573Z,99.90
2019-05-14T12:45:31.657Z,99.90
2019-05-14T12:48:09.314Z,99.90
2019-05-14T12:50:43.932Z,99.90
2019-05-14T12:53:28.794Z,99.90
2019-05-14T12:56:02.918Z,99.90
2019-05-14T12:58:45.485Z,99.90
2019-05-14T13:01:25.406Z,99.90
2019-05-14T13:03:59.716Z,99.90
2019-05-14T13:06:40.049Z,99.90
2019-05-14T13:09:21.757Z,99.90
2019-05-14T13:11:59.005Z,99.90
2019-05-14T13:14:34.762Z,99.90
2019-05-14T13:17:12.315Z,99.90
2019-05-14T13:19:48.758Z,99.90
2019-05-14T13:22:38.225Z,99.90
2019-05-14T13:25:02.831Z,99.90
2019-05-14T13:27:42.288Z,99.90
2019-05-14T13:30:18.719Z,99.90
2019-05-14T13:32:54.394Z,99.90
2019-05-14T13:35:34.103Z,99.90
2019-05-14T13:38:14.354Z,99.90
2019-05-14T13:40:55.002Z,99.90
2019-05-14T13:43:30.735Z,99.90
2019-05-14T13:46:09.955Z,99.90
2019-05-14T13:48:43.324Z,99.90
2019-05-14T13:51:19.919Z,99.90
2019-05-14T13:53:58.953Z,99.90
2019-05-14T13:56:33.757Z,99.90
2019-05-14T13:59:14.960Z,99.90
2019-05-14T14:01:49.918Z,99.90
2019-05-14T14:04:29.638Z,99.90
2019-05-14T14:07:09.340Z,99.90
2019-05-14T14:09:44.291Z,99.90
2019-05-14T14:12:24.663Z,99.90
2019-05-14T14:14:58.457Z,99.90
2019-05-14T14:17:33.959Z,99.90
2019-05-14T14:23:21.162Z,99.90
2019-05-14T14:25:45.495Z,99.90
2019-05-14T14:31:16.024Z,99.90
2019-05-14T14:33:56.846Z,99.90
2019-05-14T14:36:38.621Z,99.90
2019-05-14T14:39:13.880Z,99.90
2019-05-14T14:41:49.307Z,99.90
2019-05-14T14:44:29.180Z,99.90
2019-05-14T14:47:04.951Z,99.90
2019-05-14T14:49:42.854Z,99.90
2019-05-14T14:52:19.997Z,99.90
2019-05-14T14:54:55.291Z,99.90
2019-05-14T14:57:33.675Z,99.90
2019-05-14T15:00:11.432Z,99.90
2019-05-14T15:02:52.416Z,99.90
2019-05-14T15:05:30.218Z,99.90
2019-05-14T15:08:10.574Z,99.90
2019-05-14T15:10:45.516Z,99.90
2019-05-14T15:13:21.219Z,99.90
2019-05-14T15:16:01.101Z,99.90
2019-05-14T15:18:39.106Z,99.90
2019-05-14T15:21:48.998Z,99.90
2019-05-14T15:24:27.933Z,99.90
2019-05-14T15:27:08.305Z,99.90
2019-05-14T15:29:42.856Z,99.90
2019-05-14T15:32:19.744Z,99.90
2019-05-14T15:34:53.506Z,99.90
2019-05-14T15:37:31.601Z,99.90
2019-05-14T15:40:05.772Z,99.90
2019-05-14T15:42:49.870Z,99.90
2019-05-14T15:45:28.758Z,99.90
2019-05-14T15:48:21.023Z,99.90
2019-05-14T15:51:00.213Z,99.90
2019-05-14T15:53:38.518Z,99.90
2019-05-14T15:56:12.051Z,99.90
2019-05-14T15:58:50.608Z,99.90
2019-05-14T16:01:28.402Z,99.90
2019-05-14T16:04:05.360Z,99.90
2019-05-14T16:06:39.774Z,99.90
2019-05-14T16:09:19.434Z,99.90
2019-05-14T16:11:53.926Z,99.90
2019-05-14T16:14:30.024Z,99.90
2019-05-14T16:17:05.687Z,99.90
2019-05-14T16:19:41.234Z,99.90
2019-05-14T16:22:19.519Z,99.90
2019-05-14T16:24:57.060Z,99.90
2019-05-14T16:27:30.043Z,99.90
2019-05-14T16:30:04.990Z,99.90
2019-05-14T16:32:40.647Z,99.90
2019-05-14T16:35:21.024Z,99.90
2019-05-14T16:37:53.541Z,99.90
2019-05-14T16:40:28.837Z,99.90
2019-05-14T16:43:04.519Z,99.90
2019-05-14T16:45:39.616Z,99.90
2019-05-14T16:48:15.377Z,99.90
2019-05-14T16:50:50.157Z,99.90
2019-05-14T16:53:26.013Z,99.90
2019-05-14T16:56:00.479Z,99.90
2019-05-14T16:58:34.807Z,99.90
2019-05-14T17:01:09.849Z,99.90
2019-05-14T17:03:44.760Z,99.90
2019-05-14T17:06:19.475Z,99.90
2019-05-14T17:08:54.351Z,99.90
2019-05-14T17:11:28.770Z,99.90
2019-05-14T17:14:02.934Z,99.90
2019-05-14T17:16:37.497Z,99.90
2019-05-14T17:19:11.857Z,99.90
2019-05-14T17:21:48.559Z,99.90
2019-05-14T17:24:22.060Z,99.90
2019-05-14T17:26:58.215Z,99.90
2019-05-14T17:29:31.898Z,99.90
2019-05-14T17:32:06.468Z,99.90
2019-05-14T17:34:40.802Z,99.90
2019-05-14T17:37:16.145Z,99.90
2019-05-14T17:39:50.068Z,99.90
2019-05-14T17:42:24.694Z,99.90
2019-05-14T17:44:59.180Z,99.90
2019-05-14T17:47:33.613Z,99.90
2019-05-14T17:50:09.127Z,99.90
2019-05-14T17:52:45.164Z,99.90
2019-05-14T17:55:19.108Z,99.90
2019-05-14T17:57:58.395Z,99.90
2019-05-14T18:00:29.255Z,99.90
2019-05-14T18:03:03.723Z,99.90
2019-05-14T18:05:38.033Z,99.90
2019-05-14T18:08:12.151Z,99.90
2019-05-14T18:10:46.517Z,99.90
2019-05-14T18:13:20.709Z,99.90
2019-05-14T18:15:55.491Z,99.90
2019-05-14T18:18:30.151Z,99.90
2019-05-14T18:21:04.887Z,99.90
2019-05-14T18:23:41.948Z,99.90
2019-05-14T18:26:14.944Z,99.90
2019-05-14T18:28:49.417Z,99.90
2019-05-14T18:31:23.675Z,99.90
2019-05-14T18:33:58.806Z,99.90
2019-05-14T18:36:33.560Z,99.90
2019-05-14T18:39:09.535Z,99.90
2019-05-14T18:41:44.243Z,99.90
2019-05-14T18:44:18.980Z,99.90
2019-05-14T18:46:53.958Z,99.90
2019-05-14T18:49:28.823Z,99.90
2019-05-14T18:52:03.598Z,99.90
2019-05-14T18:54:38.706Z,99.90
2019-05-14T18:57:13.579Z,99.90
2019-05-14T18:59:49.322Z,99.90
2019-05-14T19:02:23.716Z,99.90
2019-05-14T19:04:58.101Z,99.90
2019-05-14T19:07:35.070Z,99.90
2019-05-14T19:10:11.882Z,99.90
2019-05-14T19:12:54.393Z,99.90
2019-05-14T19:15:28.858Z,99.90
2019-05-14T19:18:04.648Z,99.90
2019-05-14T19:20:39.316Z,99.90
2019-05-14T19:23:13.789Z,99.90
2019-05-14T19:25:48.509Z,99.90
2019-05-14T19:28:22.942Z,99.90
2019-05-14T19:30:59.511Z,99.90
2019-05-14T19:33:33.416Z,99.90
2019-05-14T19:36:08.840Z,99.90
2019-05-14T19:38:42.875Z,99.90
2019-05-14T19:41:21.025Z,99.90
2019-05-14T19:43:53.061Z,99.90
2019-05-14T19:46:29.122Z,99.90
2019-05-14T19:49:03.318Z,99.90
2019-05-14T19:51:38.697Z,99.90
2019-05-14T19:54:13.581Z,99.90
2019-05-14T19:56:56.370Z,99.90
2019-05-14T19:59:25.829Z,99.90
2019-05-14T20:01:59.277Z,99.90
2019-05-14T20:04:33.630Z,99.90
2019-05-14T20:07:08.925Z,99.90
2019-05-14T20:09:43.418Z,99.90
2019-05-14T20:12:18.334Z,99.90
2019-05-14T20:14:52.934Z,99.90
2019-05-14T20:17:28.336Z,99.90
2019-05-14T20:20:03.213Z,99.90
2019-05-14T20:22:39.284Z,99.90
2019-05-14T20:25:12.982Z,99.90
2019-05-14T20:27:47.995Z,99.90
2019-05-14T20:30:22.665Z,99.90
2019-05-14T20:32:59.224Z,99.90
2019-05-14T20:35:34.993Z,99.90
2019-05-14T20:38:09.146Z,99.90
2019-05-14T20:40:43.572Z,99.90
2019-05-14T20:43:18.650Z,99.90
2019-05-14T20:45:53.219Z,99.90
2019-05-14T20:48:28.129Z,99.90
2019-05-14T20:51:02.657Z,99.90
2019-05-14T20:53:39.421Z,99.90
2019-05-14T20:56:12.756Z,99.90
2019-05-14T20:58:48.194Z,99.90
2019-05-14T21:01:22.439Z,99.90
2019-05-14T21:03:59.033Z,99.90
2019-05-14T21:06:32.616Z,99.90
2019-05-14T21:09:08.431Z,99.90
2019-05-14T21:11:42.919Z,99.90
2019-05-14T21:14:18.289Z,99.90
2019-05-14T21:16:52.713Z,99.90
2019-05-14T21:19:28.311Z,99.90
2019-05-14T21:22:03.315Z,99.90
2019-05-14T21:24:39.248Z,99.90
2019-05-14T21:27:13.964Z,99.90
2019-05-14T21:29:48.861Z,99.90
2019-05-14T21:32:23.622Z,99.90
2019-05-14T21:34:58.548Z,99.90
2019-05-14T21:37:33.306Z,99.90
2019-05-14T21:40:11.536Z,99.90
2019-05-14T21:42:48.598Z,99.90
2019-05-14T21:45:21.971Z,99.90
2019-05-14T21:47:56.133Z,99.90
2019-05-14T21:50:30.570Z,99.90
2019-05-14T21:53:04.943Z,99.90
2019-05-14T21:55:39.873Z,99.90
2019-05-14T21:58:14.057Z,99.90
2019-05-14T22:00:51.249Z,99.90
2019-05-14T22:03:27.901Z,99.90
2019-05-14T22:06:01.753Z,99.90
2019-05-14T22:08:39.040Z,99.90
2019-05-14T22:11:12.341Z,99.90
2019-05-14T22:13:46.988Z,99.90
2019-05-14T22:16:21.427Z,99.90
2019-05-14T22:18:55.825Z,99.90
2019-05-14T22:21:30.493Z,99.90
2019-05-14T22:24:04.797Z,99.90
2019-05-14T22:26:39.180Z,99.90
2019-05-14T22:29:13.415Z,99.90
2019-05-14T22:31:48.264Z,99.90
2019-05-14T22:34:22.568Z,99.90
2019-05-14T22:36:58.126Z,99.90
2019-05-14T22:39:33.054Z,99.90
2019-05-14T22:42:09.186Z,99.90
2019-05-14T22:44:43.146Z,99.90
2019-05-14T22:47:18.828Z,99.90
2019-05-14T22:49:52.967Z,99.90
2019-05-14T22:52:28.448Z,99.90
2019-05-14T22:55:03.012Z,99.90
2019-05-14T22:57:39.275Z,99.90
2019-05-14T23:00:14.377Z,99.90
2019-05-14T23:02:49.520Z,99.90
2019-05-14T23:05:24.019Z,99.90
2019-05-14T23:07:58.547Z,99.90
2019-05-14T23:10:32.919Z,99.90
2019-05-14T23:13:09.178Z,99.90
2019-05-14T23:15:42.595Z,99.90
2019-05-14T23:18:18.147Z,99.90
2019-05-14T23:20:53.076Z,99.90
2019-05-14T23:23:28.155Z,99.90
2019-05-14T23:26:02.487Z,99.90
2019-05-14T23:28:42.578Z,99.90
2019-05-14T23:31:12.448Z,99.90
2019-05-14T23:33:48.816Z,99.90
2019-05-14T23:36:22.314Z,99.90
2019-05-14T23:38:59.139Z,99.90
2019-05-14T23:41:33.632Z,99.90
2019-05-14T23:44:08.342Z,99.90
2019-05-14T23:46:42.821Z,99.90
2019-05-14T23:49:18.418Z,99.90
2019-05-14T23:51:53.189Z,99.90
2019-05-14T23:54:29.116Z,99.90
2019-05-14T23:57:03.346Z,99.90
2019-05-14T23:59:39.604Z,99.90
